Time;durP1;ratioP1;P1;durP2;ratioP2;P2;SDS_P1;SDS_P2;PMS_P1;PMS_P2;Temp;Humidity;BMP_temperature;BMP_pressure;BME280_temperature;BME280_humidity;BME280_pressure;Samples;Min_cycle;Max_cycle;Signal;HPM_P1;HPM_P2
2021/12/24 00:00:21;;;;;;;37.43;19.17;;;0.30;99.90;;;;;;5112534;28;20206;-79
2021/12/24 00:02:49;;;;;;;38.50;19.10;;;0.40;99.90;;;;;;5112001;28;20512;-79
2021/12/24 00:05:16;;;;;;;32.70;18.57;;;0.40;99.90;;;;;;5111517;28;20715;-79
2021/12/24 00:07:43;;;;;;;39.40;19.20;;;0.40;99.90;;;;;;5112107;28;20613;-79
2021/12/24 00:10:11;;;;;;;39.37;19.93;;;0.50;99.90;;;;;;5110893;28;20194;-79
2021/12/24 00:12:44;;;;;;;40.03;20.80;;;0.50;99.90;;;;;;5110917;28;20199;-79
2021/12/24 00:15:34;;;;;;;41.50;20.13;;;0.50;99.90;;;;;;5110564;28;20205;-79
2021/12/24 00:18:08;;;;;;;38.17;20.40;;;0.50;99.90;;;;;;5111285;28;20187;-79
2021/12/24 00:21:35;;;;;;;37.10;19.33;;;0.60;99.90;;;;;;5111100;28;20283;-79
2021/12/24 00:37:29;;;;;;;27.53;15.37;;;0.70;99.90;;;;;;5112501;28;20174;-78
2021/12/24 00:40:06;;;;;;;29.23;16.63;;;0.80;99.90;;;;;;5112627;28;20218;-79
2021/12/24 00:42:33;;;;;;;30.60;16.50;;;0.80;99.90;;;;;;5112735;28;20243;-78
2021/12/24 00:45:00;;;;;;;28.43;16.63;;;0.80;99.90;;;;;;5112546;28;20243;-79
2021/12/24 00:47:29;;;;;;;29.40;16.10;;;0.80;99.90;;;;;;5112151;28;20655;-78
2021/12/24 00:49:57;;;;;;;28.67;16.63;;;0.90;99.90;;;;;;5112203;28;20551;-79
2021/12/24 00:52:44;;;;;;;29.03;16.93;;;0.90;99.90;;;;;;5112171;28;20186;-79
2021/12/24 00:55:11;;;;;;;30.67;15.83;;;0.90;99.90;;;;;;5091565;28;20215;-79
2021/12/24 00:57:40;;;;;;;29.10;16.07;;;0.90;99.90;;;;;;5107444;28;20190;-79
2021/12/24 01:00:12;;;;;;;26.13;15.27;;;1.00;99.90;;;;;;5112716;28;20214;-79
2021/12/24 01:02:40;;;;;;;28.33;15.80;;;1.00;99.90;;;;;;5112024;28;20186;-79
2021/12/24 01:05:08;;;;;;;29.13;16.10;;;1.00;99.90;;;;;;5116327;28;20248;-79
2021/12/24 01:07:36;;;;;;;28.17;15.60;;;1.00;99.90;;;;;;5107658;28;20233;-79
2021/12/24 01:10:04;;;;;;;25.83;15.50;;;1.00;99.90;;;;;;5095052;28;20713;-78
2021/12/24 01:12:32;;;;;;;28.87;15.87;;;1.10;99.90;;;;;;5096092;28;20673;-79
2021/12/24 01:14:59;;;;;;;28.70;15.83;;;1.10;99.90;;;;;;5116074;28;20260;-79
2021/12/24 01:17:36;;;;;;;27.30;14.80;;;1.10;99.90;;;;;;5115609;28;20199;-78
2021/12/24 01:20:19;;;;;;;26.47;14.90;;;1.10;99.90;;;;;;5115819;28;20206;-79
2021/12/24 01:25:35;;;;;;;27.07;16.10;;;1.10;99.90;;;;;;5114935;28;20185;-79
2021/12/24 01:39:09;;;;;;;32.90;18.60;;;1.20;99.90;;;;;;5115373;28;20177;-79
2021/12/24 01:44:26;;;;;;;28.47;15.23;;;1.10;99.90;;;;;;5114917;28;20185;-79
2021/12/24 01:46:55;;;;;;;32.53;17.03;;;1.10;99.90;;;;;;5115038;28;20178;-79
2021/12/24 01:49:22;;;;;;;28.83;15.73;;;1.10;99.90;;;;;;5115344;28;20233;-79
2021/12/24 01:51:51;;;;;;;25.30;13.83;;;1.10;99.90;;;;;;5114830;28;20216;-78
2021/12/24 01:54:18;;;;;;;25.83;14.40;;;1.20;99.90;;;;;;5115037;28;20186;-79
2021/12/24 01:56:46;;;;;;;26.53;14.43;;;1.20;99.90;;;;;;5114672;28;20743;-78
2021/12/24 01:59:13;;;;;;;25.57;14.53;;;1.20;99.90;;;;;;5114693;28;20198;-79
2021/12/24 02:01:40;;;;;;;26.97;16.93;;;1.20;99.90;;;;;;5114929;28;20535;-79
2021/12/24 02:04:11;;;;;;;25.30;12.70;;;1.20;99.90;;;;;;5115001;28;20313;-79
2021/12/24 02:06:39;;;;;;;24.00;13.40;;;1.20;99.90;;;;;;5115344;28;20240;-79
2021/12/24 02:09:09;;;;;;;27.47;13.23;;;1.20;99.90;;;;;;5114505;28;20655;-79
2021/12/24 02:11:38;;;;;;;21.43;12.30;;;1.20;99.90;;;;;;5114493;28;20216;-79
2021/12/24 02:14:06;;;;;;;25.70;14.70;;;1.20;99.90;;;;;;5114457;28;20274;-79
2021/12/24 02:16:55;;;;;;;26.00;14.60;;;1.20;99.90;;;;;;5114722;28;20222;-79
2021/12/24 02:30:34;;;;;;;23.50;12.70;;;1.30;99.90;;;;;;5114314;28;20755;-79
2021/12/24 02:33:02;;;;;;;20.83;12.27;;;1.30;99.90;;;;;;5113876;28;20647;-79
2021/12/24 02:35:30;;;;;;;27.33;15.10;;;1.20;99.90;;;;;;5114402;28;20247;-78
2021/12/24 02:37:59;;;;;;;26.23;14.63;;;1.30;99.90;;;;;;5114393;28;20228;-79
2021/12/24 02:40:27;;;;;;;24.73;13.60;;;1.30;99.90;;;;;;5113744;28;20618;-78
2021/12/24 02:42:55;;;;;;;23.40;14.00;;;1.30;99.90;;;;;;5113988;28;20198;-79
2021/12/24 02:45:24;;;;;;;25.70;13.87;;;1.30;99.90;;;;;;5114253;28;20285;-79
2021/12/24 02:56:14;;;;;;;23.93;13.60;;;1.30;99.90;;;;;;5093400;28;20643;-79
2021/12/24 02:58:42;;;;;;;23.27;13.67;;;1.30;99.90;;;;;;5093986;28;20191;-79
2021/12/24 03:01:10;;;;;;;23.73;14.20;;;1.30;99.90;;;;;;5094185;28;20305;-79
2021/12/24 03:03:38;;;;;;;22.40;14.63;;;1.30;99.90;;;;;;5113578;28;20716;-79
2021/12/24 03:06:05;;;;;;;24.20;13.77;;;1.30;99.90;;;;;;5113779;28;20194;-79
2021/12/24 03:08:35;;;;;;;23.93;14.07;;;1.40;99.90;;;;;;5113616;28;20587;-79
2021/12/24 03:11:02;;;;;;;22.50;13.57;;;1.30;99.90;;;;;;5113232;28;20532;-79
2021/12/24 03:13:29;;;;;;;21.97;12.93;;;1.30;99.90;;;;;;5113795;28;20263;-79
2021/12/24 03:15:59;;;;;;;24.60;13.73;;;1.30;99.90;;;;;;5113664;28;20213;-79
2021/12/24 03:18:28;;;;;;;24.67;15.23;;;1.40;99.90;;;;;;5113290;27;20636;-79
2021/12/24 03:21:03;;;;;;;23.80;13.83;;;1.40;99.90;;;;;;5113187;28;20206;-79
2021/12/24 03:23:37;;;;;;;22.07;13.77;;;1.40;99.90;;;;;;5113567;28;20214;-79
2021/12/24 03:26:08;;;;;;;26.97;14.60;;;1.40;99.90;;;;;;5113094;28;20194;-79
2021/12/24 03:28:35;;;;;;;26.23;15.10;;;1.40;99.90;;;;;;5113145;28;20174;-79
2021/12/24 03:31:03;;;;;;;24.07;14.07;;;1.40;99.90;;;;;;5113034;28;20712;-79
2021/12/24 03:33:30;;;;;;;23.57;14.17;;;1.40;99.90;;;;;;5113455;28;20195;-79
2021/12/24 03:35:57;;;;;;;23.50;14.10;;;1.40;99.90;;;;;;5113325;28;20250;-79
2021/12/24 03:38:24;;;;;;;23.23;13.43;;;1.40;99.90;;;;;;5112727;28;20232;-79
2021/12/24 03:40:51;;;;;;;21.30;12.53;;;1.40;99.90;;;;;;5112917;28;20218;-79
2021/12/24 03:43:19;;;;;;;22.23;12.87;;;1.40;99.90;;;;;;5113069;28;20194;-79
2021/12/24 03:45:57;;;;;;;21.07;13.10;;;1.40;99.90;;;;;;5113505;28;20187;-79
2021/12/24 03:48:40;;;;;;;21.47;12.43;;;1.40;99.90;;;;;;5112987;28;20239;-79
2021/12/24 03:51:24;;;;;;;24.63;15.23;;;1.40;99.90;;;;;;5112768;28;20651;-79
2021/12/24 03:56:38;;;;;;;24.20;13.90;;;1.40;99.90;;;;;;5112842;28;20229;-79
2021/12/24 03:59:08;;;;;;;21.33;12.83;;;1.40;99.90;;;;;;5112941;28;20186;-79
2021/12/24 04:01:36;;;;;;;25.47;14.23;;;1.40;99.90;;;;;;5112986;28;20215;-79
2021/12/24 04:04:03;;;;;;;29.03;19.33;;;1.40;99.90;;;;;;5113006;28;20239;-79
2021/12/24 04:06:31;;;;;;;27.37;14.87;;;1.40;99.90;;;;;;5112702;28;20183;-79
2021/12/24 04:08:58;;;;;;;22.67;13.23;;;1.40;99.90;;;;;;5112584;28;20651;-79
2021/12/24 04:11:25;;;;;;;28.00;15.20;;;1.50;99.90;;;;;;5113002;28;20259;-79
2021/12/24 04:13:52;;;;;;;26.57;16.27;;;1.40;99.90;;;;;;5112948;28;20677;-79
2021/12/24 04:16:20;;;;;;;24.37;13.30;;;1.50;99.90;;;;;;5112415;28;20191;-79
2021/12/24 04:18:55;;;;;;;23.93;13.77;;;1.40;99.90;;;;;;5112809;28;20639;-79
2021/12/24 04:26:50;;;;;;;24.53;15.53;;;1.50;99.90;;;;;;5112340;28;20259;-79
2021/12/24 04:29:18;;;;;;;24.83;16.33;;;1.50;99.90;;;;;;5112513;28;20700;-79
2021/12/24 04:31:54;;;;;;;26.73;13.97;;;1.50;99.90;;;;;;5112436;28;20315;-79
2021/12/24 04:34:26;;;;;;;32.73;15.90;;;1.50;99.90;;;;;;5112965;28;20263;-79
2021/12/24 04:37:21;;;;;;;31.60;17.07;;;1.50;99.90;;;;;;5112200;28;20708;-79
2021/12/24 04:39:51;;;;;;;25.53;14.10;;;1.50;99.90;;;;;;5115258;28;20187;-79
2021/12/24 05:01:13;;;;;;;23.37;12.90;;;1.40;99.90;;;;;;5116101;28;20194;-79
2021/12/24 05:02:18;;;;;;;24.23;13.43;;;1.40;99.90;;;;;;5092822;28;20276;-79
2021/12/24 05:04:50;;;;;;;22.30;12.83;;;1.40;99.90;;;;;;5095482;28;20186;-79
2021/12/24 05:07:42;;;;;;;23.70;13.03;;;1.40;99.90;;;;;;5100968;27;20193;-79
2021/12/24 05:10:09;;;;;;;24.60;13.63;;;1.40;99.90;;;;;;5095743;28;20207;-79
2021/12/24 05:12:36;;;;;;;25.77;14.97;;;1.40;99.90;;;;;;5112757;28;20195;-79
2021/12/24 05:15:07;;;;;;;25.43;13.53;;;1.40;99.90;;;;;;5115854;28;20190;-79
2021/12/24 05:17:49;;;;;;;24.77;13.37;;;1.30;99.90;;;;;;5115736;28;20218;-79
2021/12/24 05:23:13;;;;;;;32.73;17.80;;;1.40;99.90;;;;;;5073043;28;20507;-79
2021/12/24 05:25:43;;;;;;;27.17;14.00;;;1.30;99.90;;;;;;5105546;28;20196;-79
2021/12/24 05:28:11;;;;;;;24.73;13.57;;;1.30;99.90;;;;;;5115385;28;20179;-78
2021/12/24 05:30:38;;;;;;;27.73;14.60;;;1.30;99.90;;;;;;5115121;28;20191;-79
2021/12/24 05:33:05;;;;;;;25.87;13.80;;;1.30;99.90;;;;;;5112178;27;20244;-79
2021/12/24 05:35:34;;;;;;;27.33;15.57;;;1.30;99.90;;;;;;5115176;28;20235;-79
2021/12/24 05:38:01;;;;;;;26.20;13.23;;;1.40;99.90;;;;;;5112860;28;20208;-79
2021/12/24 05:40:28;;;;;;;22.90;13.00;;;1.30;99.90;;;;;;5108503;27;20214;-79
2021/12/24 05:42:55;;;;;;;21.77;13.23;;;1.30;99.90;;;;;;5115123;28;20602;-79
2021/12/24 05:45:24;;;;;;;22.33;13.20;;;1.40;99.90;;;;;;5115285;28;20713;-79
2021/12/24 05:47:51;;;;;;;24.40;14.50;;;1.30;99.90;;;;;;5115700;28;20194;-79
2021/12/24 05:50:18;;;;;;;25.00;13.00;;;1.40;99.90;;;;;;5114785;28;20190;-79
2021/12/24 05:52:46;;;;;;;27.93;14.17;;;1.40;99.90;;;;;;5115292;27;20602;-79
2021/12/24 05:55:13;;;;;;;25.20;12.67;;;1.40;99.90;;;;;;5114906;27;20244;-79
2021/12/24 05:57:40;;;;;;;27.13;14.27;;;1.30;99.90;;;;;;5114524;28;20214;-79
2021/12/24 06:00:10;;;;;;;25.73;13.93;;;1.40;99.90;;;;;;5114717;28;20586;-79
2021/12/24 06:02:37;;;;;;;27.87;15.27;;;1.40;99.90;;;;;;5114652;28;20190;-79
2021/12/24 06:05:05;;;;;;;27.70;15.13;;;1.40;99.90;;;;;;5115231;28;20198;-79
2021/12/24 06:07:32;;;;;;;26.77;14.93;;;1.40;99.90;;;;;;5114767;28;20194;-79
2021/12/24 06:10:01;;;;;;;26.73;16.93;;;1.40;99.90;;;;;;5114693;28;20598;-79
2021/12/24 06:12:28;;;;;;;23.83;13.53;;;1.40;99.90;;;;;;5113843;28;20187;-79
2021/12/24 06:15:01;;;;;;;29.73;16.87;;;1.40;99.90;;;;;;5114872;28;20179;-79
2021/12/24 06:17:28;;;;;;;26.13;15.97;;;1.40;99.90;;;;;;5114556;28;20175;-79
2021/12/24 06:19:55;;;;;;;34.47;16.07;;;1.40;99.90;;;;;;5114510;28;20214;-79
2021/12/24 06:22:22;;;;;;;25.73;13.43;;;1.40;99.90;;;;;;5114836;28;20259;-79
2021/12/24 06:24:49;;;;;;;39.43;19.97;;;1.40;99.90;;;;;;5114634;28;20212;-80
2021/12/24 06:27:18;;;;;;;37.70;18.70;;;1.40;99.90;;;;;;5114743;27;20542;-79
2021/12/24 06:29:44;;;;;;;32.20;18.70;;;1.40;99.90;;;;;;5114518;28;20191;-79
2021/12/24 06:32:11;;;;;;;31.70;17.00;;;1.40;99.90;;;;;;5114259;28;20248;-78
2021/12/24 06:34:38;;;;;;;24.43;13.77;;;1.50;99.90;;;;;;5114609;28;20191;-79
2021/12/24 06:37:05;;;;;;;21.87;12.77;;;1.50;99.90;;;;;;5113959;28;20194;-79
2021/12/24 06:39:32;;;;;;;23.57;13.07;;;1.50;99.90;;;;;;5113512;28;20183;-79
2021/12/24 06:41:59;;;;;;;26.37;14.50;;;1.50;99.90;;;;;;5114273;28;20279;-79
2021/12/24 06:44:28;;;;;;;19.83;12.40;;;1.50;99.90;;;;;;5114526;28;20195;-78
2021/12/24 06:46:55;;;;;;;24.37;12.77;;;1.50;99.90;;;;;;5114164;28;20651;-79
2021/12/24 06:49:22;;;;;;;27.33;15.30;;;1.60;99.90;;;;;;5114076;28;20186;-79
2021/12/24 06:51:49;;;;;;;20.57;11.60;;;1.50;99.90;;;;;;5113721;28;20524;-79
2021/12/24 06:54:20;;;;;;;25.40;13.00;;;1.50;99.90;;;;;;5113751;28;20198;-78
2021/12/24 06:56:47;;;;;;;23.67;12.90;;;1.60;99.90;;;;;;5113820;28;20218;-79
2021/12/24 06:59:19;;;;;;;25.33;14.90;;;1.50;99.90;;;;;;5113770;28;20214;-79
2021/12/24 07:01:47;;;;;;;22.47;13.20;;;1.60;99.90;;;;;;5106395;28;20209;-79
2021/12/24 07:04:21;;;;;;;22.37;11.43;;;1.60;99.90;;;;;;5113808;28;20194;-79
2021/12/24 07:06:48;;;;;;;23.03;12.83;;;1.60;99.90;;;;;;5113499;28;20654;-79
2021/12/24 07:09:17;;;;;;;22.57;14.20;;;1.50;99.90;;;;;;5113708;28;20195;-79
2021/12/24 07:11:44;;;;;;;30.50;14.73;;;1.60;99.90;;;;;;5113415;28;20201;-79
2021/12/24 07:14:11;;;;;;;32.40;17.93;;;1.50;99.90;;;;;;5112979;28;20244;-79
2021/12/24 07:16:38;;;;;;;26.73;15.50;;;1.60;99.90;;;;;;5113252;28;20195;-79
2021/12/24 07:19:06;;;;;;;29.50;16.43;;;1.60;99.90;;;;;;5113286;28;20724;-79
2021/12/24 07:21:35;;;;;;;32.87;18.33;;;1.60;99.90;;;;;;5113450;28;20271;-79
2021/12/24 07:24:04;;;;;;;22.27;13.90;;;1.60;99.90;;;;;;5113167;28;20191;-78
2021/12/24 07:26:35;;;;;;;28.90;15.30;;;1.60;99.90;;;;;;5113617;28;20301;-79
2021/12/24 07:29:03;;;;;;;29.03;17.23;;;1.60;99.90;;;;;;5113416;28;20196;-79
2021/12/24 07:31:32;;;;;;;29.20;17.53;;;1.70;99.90;;;;;;5112837;28;20194;-79
2021/12/24 07:34:00;;;;;;;31.47;17.90;;;1.60;99.90;;;;;;5112690;28;20282;-79
2021/12/24 07:36:28;;;;;;;25.77;15.33;;;1.70;99.90;;;;;;5113464;28;20321;-79
2021/12/24 07:38:55;;;;;;;28.67;16.90;;;1.70;99.90;;;;;;5112615;28;20237;-79
2021/12/24 07:41:24;;;;;;;22.90;14.20;;;1.70;99.90;;;;;;5112319;28;20275;-79
2021/12/24 07:43:51;;;;;;;23.03;14.50;;;1.70;99.90;;;;;;5113073;28;20629;-79
2021/12/24 07:46:18;;;;;;;31.30;16.20;;;1.70;99.90;;;;;;5112206;28;20191;-79
2021/12/24 07:48:48;;;;;;;41.07;20.00;;;1.80;99.90;;;;;;5111901;27;20192;-78
2021/12/24 07:54:04;;;;;;;24.13;13.77;;;1.80;99.90;;;;;;5112497;28;20194;-79
2021/12/24 07:56:32;;;;;;;25.90;16.10;;;1.80;99.90;;;;;;5112689;28;20622;-79
2021/12/24 07:59:01;;;;;;;22.17;13.67;;;1.80;99.90;;;;;;5110659;28;20637;-78
2021/12/24 08:01:28;;;;;;;20.87;12.47;;;1.90;99.90;;;;;;5113882;27;20217;-79
2021/12/24 08:03:56;;;;;;;23.63;13.27;;;1.90;99.90;;;;;;5112478;28;20194;-79
2021/12/24 08:06:25;;;;;;;23.37;12.43;;;1.90;99.90;;;;;;5111718;28;21618;-79
2021/12/24 08:08:52;;;;;;;23.47;12.17;;;1.90;99.90;;;;;;5112620;28;20195;-79
2021/12/24 08:11:21;;;;;;;33.00;18.77;;;1.90;99.90;;;;;;5112913;28;20239;-79
2021/12/24 08:13:48;;;;;;;32.63;16.80;;;2.00;99.90;;;;;;5116359;28;20243;-79
2021/12/24 08:16:15;;;;;;;34.77;17.97;;;2.00;99.90;;;;;;5124379;27;20190;-79
2021/12/24 08:18:44;;;;;;;26.30;14.60;;;2.00;99.90;;;;;;5132086;27;20183;-79
2021/12/24 08:21:11;;;;;;;28.60;16.10;;;2.00;99.90;;;;;;5116378;28;20281;-78
2021/12/24 08:23:39;;;;;;;29.33;15.80;;;2.00;99.90;;;;;;5116294;27;20194;-79
2021/12/24 08:26:06;;;;;;;33.77;19.27;;;2.00;99.90;;;;;;5116560;28;20198;-79
2021/12/24 08:28:44;;;;;;;46.13;30.13;;;2.10;99.90;;;;;;5116837;28;20253;-78
2021/12/24 08:31:12;;;;;;;47.97;28.47;;;2.20;99.90;;;;;;5116127;27;20247;-78
2021/12/24 08:33:39;;;;;;;37.60;20.17;;;2.10;99.90;;;;;;5116289;28;20563;-79
2021/12/24 08:36:08;;;;;;;45.03;23.50;;;2.20;99.90;;;;;;5116170;28;20299;-78
2021/12/24 08:38:35;;;;;;;40.47;19.97;;;2.20;99.90;;;;;;5116657;28;20196;-78
2021/12/24 08:41:02;;;;;;;31.17;17.60;;;2.20;99.90;;;;;;5116668;28;20192;-78
2021/12/24 08:43:33;;;;;;;33.60;19.33;;;2.20;99.90;;;;;;5116429;28;20184;-78
2021/12/24 08:46:02;;;;;;;27.13;14.83;;;2.20;99.90;;;;;;5116967;28;20255;-79
2021/12/24 08:48:40;;;;;;;25.10;15.83;;;2.20;99.90;;;;;;5116108;28;20186;-79
2021/12/24 08:51:08;;;;;;;26.33;15.50;;;2.20;99.90;;;;;;5115828;28;20191;-79
2021/12/24 08:53:35;;;;;;;22.27;13.93;;;2.30;99.90;;;;;;5115468;28;20648;-79
2021/12/24 08:56:02;;;;;;;24.07;14.73;;;2.30;99.90;;;;;;5116323;28;20280;-79
2021/12/24 08:58:29;;;;;;;27.80;15.87;;;2.40;99.90;;;;;;5116032;28;20187;-79
2021/12/24 09:00:56;;;;;;;35.93;19.50;;;2.50;99.90;;;;;;5115826;28;20267;-79
2021/12/24 09:03:25;;;;;;;28.30;15.13;;;2.50;99.90;;;;;;5115587;28;20210;-79
2021/12/24 09:05:52;;;;;;;31.27;17.73;;;2.70;99.90;;;;;;5116708;27;20249;-79
2021/12/24 09:08:19;;;;;;;38.83;20.80;;;2.70;99.90;;;;;;5116071;28;20198;-79
2021/12/24 09:10:47;;;;;;;41.87;21.90;;;2.80;99.90;;;;;;5116124;28;20190;-79
2021/12/24 09:13:14;;;;;;;43.67;24.20;;;2.90;99.90;;;;;;5115402;28;20198;-79
2021/12/24 09:15:41;;;;;;;33.27;18.47;;;3.00;99.90;;;;;;5116102;28;20195;-79
2021/12/24 09:18:08;;;;;;;61.53;30.30;;;3.00;99.90;;;;;;5115624;28;20198;-78
2021/12/24 09:20:41;;;;;;;21.90;12.30;;;3.10;99.90;;;;;;5116107;28;20250;-78
2021/12/24 09:23:09;;;;;;;12.50;8.03;;;3.20;99.90;;;;;;5115413;28;20241;-79
2021/12/24 09:25:37;;;;;;;13.90;9.37;;;3.30;99.90;;;;;;5114383;28;20190;-79
2021/12/24 09:28:05;;;;;;;16.70;11.07;;;3.30;99.90;;;;;;5114723;28;20198;-79
2021/12/24 09:30:33;;;;;;;53.00;26.70;;;3.50;99.90;;;;;;5114860;28;20190;-79
2021/12/24 09:33:00;;;;;;;51.23;25.30;;;3.60;99.90;;;;;;5114581;28;20192;-79
2021/12/24 09:35:29;;;;;;;19.70;11.07;;;3.70;99.90;;;;;;5114184;28;20195;-79
2021/12/24 09:38:03;;;;;;;26.83;15.73;;;3.70;99.90;;;;;;5114239;28;20619;-78
2021/12/24 09:40:33;;;;;;;23.27;13.90;;;3.70;99.90;;;;;;5114678;28;20634;-78
2021/12/24 09:43:01;;;;;;;11.57;7.23;;;3.70;99.90;;;;;;5114228;28;20689;-78
2021/12/24 09:45:28;;;;;;;10.50;6.47;;;3.70;99.90;;;;;;5113688;28;20556;-78
2021/12/24 09:47:55;;;;;;;38.27;17.47;;;3.60;99.90;;;;;;5113646;28;20684;-78
2021/12/24 09:50:25;;;;;;;42.80;17.37;;;3.60;99.90;;;;;;5113534;28;20187;-78
2021/12/24 09:52:52;;;;;;;39.80;19.10;;;3.50;99.90;;;;;;5114537;27;20220;-78
2021/12/24 09:55:24;;;;;;;28.80;15.00;;;3.60;99.90;;;;;;5114988;28;20267;-78
2021/12/24 09:57:52;;;;;;;28.27;17.03;;;3.60;99.90;;;;;;5114894;28;20208;-78
2021/12/24 10:00:21;;;;;;;20.57;12.80;;;3.60;99.90;;;;;;5114687;28;20194;-78
2021/12/24 10:02:52;;;;;;;10.27;7.10;;;3.50;99.90;;;;;;5114522;28;20206;-78
2021/12/24 10:05:32;;;;;;;11.03;7.47;;;3.50;99.90;;;;;;5114485;28;20311;-78
2021/12/24 10:08:11;;;;;;;19.13;11.13;;;3.50;99.90;;;;;;5114808;28;20182;-78
2021/12/24 10:10:43;;;;;;;30.70;16.60;;;3.40;99.90;;;;;;5113789;27;20192;-78
2021/12/24 10:13:36;;;;;;;18.00;11.37;;;3.50;99.90;;;;;;5114364;28;20226;-79
2021/12/24 10:16:06;;;;;;;21.30;10.87;;;3.50;99.90;;;;;;5114459;28;20190;-78
2021/12/24 10:18:38;;;;;;;27.80;15.57;;;3.50;99.90;;;;;;5114486;27;20245;-78
2021/12/24 10:21:09;;;;;;;37.93;18.73;;;3.60;99.90;;;;;;5114921;28;20178;-78
2021/12/24 10:23:47;;;;;;;41.37;17.57;;;3.50;99.90;;;;;;5114129;28;20210;-78
2021/12/24 10:26:22;;;;;;;53.90;22.23;;;3.60;99.90;;;;;;5114157;28;20185;-78
2021/12/24 10:29:00;;;;;;;54.33;24.70;;;3.60;99.90;;;;;;5114437;28;20183;-77
2021/12/24 10:31:29;;;;;;;25.77;12.93;;;3.70;99.90;;;;;;5114404;28;20194;-79
2021/12/24 10:34:22;;;;;;;18.23;10.43;;;3.70;99.90;;;;;;5114338;28;20260;-78
2021/12/24 10:37:01;;;;;;;16.33;10.00;;;3.70;99.90;;;;;;5100835;28;20194;-78
2021/12/24 10:39:30;;;;;;;21.53;12.67;;;3.60;99.90;;;;;;5092740;28;20683;-78
2021/12/24 10:42:01;;;;;;;24.87;13.90;;;3.70;99.90;;;;;;5093092;28;20199;-78
2021/12/24 10:44:31;;;;;;;18.40;10.80;;;3.70;99.90;;;;;;5113065;28;20184;-78
2021/12/24 10:47:01;;;;;;;16.90;9.77;;;3.70;99.90;;;;;;5113435;27;20236;-78
2021/12/24 10:49:51;;;;;;;15.83;8.73;;;3.60;99.90;;;;;;5113754;28;20232;-79
2021/12/24 10:55:15;;;;;;;24.90;12.03;;;3.40;99.90;;;;;;5107840;27;20226;-78
2021/12/24 10:57:51;;;;;;;21.17;10.90;;;3.30;99.90;;;;;;5114123;28;20727;-78
2021/12/24 11:03:25;;;;;;;12.63;7.23;;;3.20;99.90;;;;;;5112080;28;20328;-78
2021/12/24 11:06:21;;;;;;;18.60;9.70;;;3.20;99.90;;;;;;5113011;28;20201;-78
2021/12/24 11:11:49;;;;;;;38.57;17.47;;;3.10;99.90;;;;;;5112976;28;20197;-78
2021/12/24 11:14:34;;;;;;;34.60;15.83;;;3.10;99.90;;;;;;5113292;28;20218;-78
2021/12/24 11:17:03;;;;;;;42.20;17.00;;;3.10;99.90;;;;;;5111770;28;20235;-78
2021/12/24 11:20:06;;;;;;;15.87;8.60;;;3.20;99.90;;;;;;5113401;28;20194;-78
2021/12/24 11:23:00;;;;;;;20.67;9.43;;;3.20;99.90;;;;;;5113522;28;20198;-78
2021/12/24 11:25:48;;;;;;;17.93;9.17;;;3.20;99.90;;;;;;5113394;27;20194;-78
2021/12/24 11:28:16;;;;;;;14.40;8.10;;;3.20;99.90;;;;;;5113142;28;20186;-78
2021/12/24 11:30:53;;;;;;;18.90;10.67;;;3.10;99.90;;;;;;5113105;28;20236;-79
2021/12/24 11:33:32;;;;;;;10.73;6.37;;;3.10;99.90;;;;;;5113152;28;20182;-78
2021/12/24 11:36:21;;;;;;;13.30;7.50;;;3.10;99.90;;;;;;5111935;28;20265;-78
2021/12/24 11:44:39;;;;;;;8.40;5.40;;;3.20;99.90;;;;;;5112652;28;20196;-78
2021/12/24 11:47:28;;;;;;;14.60;8.50;;;3.20;99.90;;;;;;5112845;28;20196;-78
2021/12/24 11:50:06;;;;;;;8.77;5.87;;;3.20;99.90;;;;;;5112852;28;20183;-79
2021/12/24 11:53:02;;;;;;;13.83;8.07;;;3.30;5.90;;;;;;5112823;28;20604;-78
2021/12/24 11:55:34;;;;;;;11.77;8.27;;;3.30;1.00;;;;;;5112715;28;20186;-79
2021/12/24 11:58:05;;;;;;;9.87;6.83;;;3.40;1.00;;;;;;5112656;28;20642;-78
2021/12/24 12:00:38;;;;;;;9.87;6.97;;;3.40;1.00;;;;;;5112614;28;20214;-79
2021/12/24 12:03:08;;;;;;;7.43;5.67;;;3.40;1.00;;;;;;5112964;28;20221;-79
2021/12/24 12:05:37;;;;;;;9.40;5.90;;;3.30;1.00;;;;;;5113085;28;20198;-79
2021/12/24 12:08:39;;;;;;;9.20;6.10;;;3.40;99.90;;;;;;5112703;28;20232;-79
2021/12/24 12:11:28;;;;;;;12.13;7.80;;;3.40;99.90;;;;;;5113427;28;20186;-79
2021/12/24 12:13:57;;;;;;;10.03;6.60;;;3.30;1.00;;;;;;5108419;28;20640;-78
2021/12/24 12:16:26;;;;;;;9.23;5.97;;;3.30;99.90;;;;;;5112761;28;20593;-78
2021/12/24 12:19:12;;;;;;;10.63;7.03;;;3.20;1.00;;;;;;5112826;28;20190;-78
2021/12/24 12:21:41;;;;;;;14.73;9.17;;;3.10;1.00;;;;;;5112890;28;20524;-79
2021/12/24 12:27:00;;;;;;;14.60;9.77;;;3.10;1.00;;;;;;5112056;28;20644;-78
2021/12/24 12:29:43;;;;;;;15.30;8.83;;;3.00;1.00;;;;;;5112276;28;20559;-78
2021/12/24 12:32:43;;;;;;;17.70;10.90;;;2.90;1.00;;;;;;5113020;28;20244;-79
2021/12/24 12:35:12;;;;;;;16.37;9.37;;;2.90;1.00;;;;;;5104201;28;20187;-78
2021/12/24 12:37:46;;;;;;;17.47;10.83;;;2.80;1.00;;;;;;5113090;28;20232;-78
2021/12/24 12:40:30;;;;;;;17.37;11.03;;;2.80;1.00;;;;;;5103266;28;20187;-78
2021/12/24 12:43:18;;;;;;;20.63;12.30;;;2.80;1.00;;;;;;5111050;28;20302;-78
2021/12/24 12:46:05;;;;;;;20.03;11.83;;;2.70;1.00;;;;;;5091733;28;20194;-78
2021/12/24 12:48:51;;;;;;;21.33;11.87;;;2.70;1.00;;;;;;5111757;28;20190;-78
2021/12/24 12:51:36;;;;;;;23.57;13.77;;;2.70;1.00;;;;;;5112434;28;20189;-78
2021/12/24 12:54:31;;;;;;;23.90;13.90;;;2.60;1.00;;;;;;5112305;28;20229;-78
2021/12/24 12:57:22;;;;;;;27.20;14.53;;;2.60;1.00;;;;;;5112137;28;20273;-77
2021/12/24 13:00:17;;;;;;;21.73;12.23;;;2.50;1.00;;;;;;5114051;28;20184;-77
2021/12/24 13:03:07;;;;;;;23.97;12.23;;;2.40;1.00;;;;;;5116462;27;20257;-78
2021/12/24 13:05:58;;;;;;;24.30;12.23;;;2.40;1.00;;;;;;5115897;28;20178;-79
2021/12/24 13:08:29;;;;;;;24.53;12.07;;;2.30;1.00;;;;;;5116477;28;20179;-79
2021/12/24 13:10:58;;;;;;;23.73;12.87;;;2.20;1.00;;;;;;5115959;28;20183;-79
2021/12/24 13:13:32;;;;;;;26.63;13.80;;;2.20;44.80;;;;;;5116043;28;20599;-78
2021/12/24 13:16:00;;;;;;;25.73;12.90;;;2.20;99.90;;;;;;5115068;28;20655;-79
2021/12/24 13:18:31;;;;;;;30.27;14.70;;;2.20;99.90;;;;;;5115696;28;20195;-79
2021/12/24 13:23:47;;;;;;;20.10;11.80;;;2.20;99.90;;;;;;5115784;28;20280;-79
2021/12/24 13:26:18;;;;;;;17.37;9.83;;;2.10;99.90;;;;;;5116091;27;20569;-79
2021/12/24 13:28:57;;;;;;;21.80;12.13;;;2.10;99.90;;;;;;5115504;28;20178;-79
2021/12/24 13:31:26;;;;;;;22.17;12.60;;;2.10;1.00;;;;;;5115358;28;20627;-79
2021/12/24 13:34:07;;;;;;;22.73;13.43;;;2.10;1.00;;;;;;5115270;28;20603;-78
2021/12/24 13:36:34;;;;;;;20.67;11.97;;;2.10;1.00;;;;;;5114491;28;20262;-78
2021/12/24 13:39:11;;;;;;;22.80;13.13;;;2.10;1.00;;;;;;5115721;27;20236;-79
2021/12/24 13:41:43;;;;;;;27.40;15.77;;;2.10;1.00;;;;;;5132044;28;20163;-81
2021/12/24 13:44:23;;;;;;;21.87;11.67;;;2.10;1.00;;;;;;5133958;28;20214;-82
2021/12/24 13:47:17;;;;;;;25.13;13.43;;;2.10;1.00;;;;;;5120440;28;20270;-76
2021/12/24 13:55:31;;;;;;;27.57;14.97;;;2.00;99.90;;;;;;5131379;28;20186;-81
2021/12/24 13:58:01;;;;;;;24.50;13.40;;;1.90;99.90;;;;;;5136518;28;20222;-83
2021/12/24 14:00:38;;;;;;;16.60;9.87;;;1.90;99.90;;;;;;5135618;28;20198;-81
2021/12/24 14:03:14;;;;;;;17.80;9.33;;;1.90;99.90;;;;;;5134417;28;20217;-81
2021/12/24 14:06:00;;;;;;;16.43;8.17;;;1.90;99.90;;;;;;5136654;28;20166;-81
2021/12/24 14:08:34;;;;;;;15.93;8.90;;;1.90;99.90;;;;;;5117193;28;20255;-81
2021/12/24 14:11:08;;;;;;;14.50;8.47;;;1.80;1.00;;;;;;5127371;28;20191;-81
2021/12/24 14:13:48;;;;;;;19.67;10.80;;;1.80;1.00;;;;;;5135758;28;20175;-79
2021/12/24 14:16:38;;;;;;;16.07;9.47;;;1.80;1.00;;;;;;5123949;28;20214;-79
2021/12/24 14:19:30;;;;;;;16.80;9.30;;;1.70;1.00;;;;;;5135796;28;20208;-82
2021/12/24 14:22:07;;;;;;;18.77;11.37;;;1.70;1.00;;;;;;5138590;28;20190;-82
2021/12/24 14:25:00;;;;;;;15.63;8.73;;;1.70;1.00;;;;;;5138414;28;20202;-79
2021/12/24 14:27:30;;;;;;;14.97;8.37;;;1.70;1.00;;;;;;5136599;28;20183;-81
2021/12/24 14:30:03;;;;;;;14.77;8.83;;;1.70;1.00;;;;;;5131892;28;20184;-78
2021/12/24 14:32:49;;;;;;;18.23;9.50;;;1.60;1.00;;;;;;5137035;28;20197;-82
2021/12/24 14:35:56;;;;;;;14.40;8.77;;;1.60;27.20;;;;;;5136946;28;20204;-82
2021/12/24 14:39:15;;;;;;;14.20;8.80;;;1.60;99.90;;;;;;5116184;28;20238;-81
2021/12/24 15:03:38;;;;;;;16.50;9.73;;;1.30;1.00;;;;;;5133707;28;20206;-80
2021/12/24 15:06:51;;;;;;;15.53;9.93;;;1.30;1.00;;;;;;5137014;28;20183;-80
2021/12/24 15:28:56;;;;;;;18.50;11.67;;;1.30;1.00;;;;;;5138105;28;20255;-80
2021/12/24 15:31:51;;;;;;;22.17;12.20;;;1.30;1.00;;;;;;5137813;28;20208;-82
2021/12/24 15:34:32;;;;;;;20.57;12.33;;;1.30;1.00;;;;;;5137748;28;20278;-81
2021/12/24 15:37:03;;;;;;;20.17;11.97;;;1.30;1.00;;;;;;5137400;28;20183;-82